Time;durP1;ratioP1;P1;durP2;ratioP2;P2;SDS_P1;SDS_P2;PMS_P1;PMS_P2;Temp;Humidity;BMP_temperature;BMP_pressure;BME280_temperature;BME280_humidity;BME280_pressure;Samples;Min_cycle;Max_cycle;Signal;HPM_P1;HPM_P2
2023/10/17 00:01:44;;;;;;;6.37;4.80;;;3.20;99.90;;;;;;5041698;28;20228;-83
2023/10/17 00:04:25;;;;;;;7.20;5.00;;;3.20;99.90;;;;;;5042008;28;20242;-85
2023/10/17 00:06:54;;;;;;;9.23;5.10;;;3.20;99.90;;;;;;5039679;28;20228;-84
2023/10/17 00:09:23;;;;;;;8.13;5.43;;;3.20;99.90;;;;;;5030192;28;20308;-82
2023/10/17 00:11:57;;;;;;;5.80;4.87;;;3.20;99.90;;;;;;5038212;28;20834;-85
2023/10/17 00:14:35;;;;;;;7.33;4.87;;;3.20;99.90;;;;;;5026702;28;20228;-84
2023/10/17 00:17:03;;;;;;;6.37;4.80;;;3.20;99.90;;;;;;5024491;28;20311;-85
2023/10/17 00:19:32;;;;;;;6.33;4.50;;;3.20;99.90;;;;;;5029925;28;20234;-85
2023/10/17 00:21:59;;;;;;;6.13;4.43;;;3.20;99.90;;;;;;5044167;28;20342;-84
2023/10/17 00:24:26;;;;;;;6.00;4.40;;;3.20;99.90;;;;;;5045277;28;20226;-85
2023/10/17 00:26:53;;;;;;;5.97;4.37;;;3.10;99.90;;;;;;5044665;28;20637;-83
2023/10/17 00:29:20;;;;;;;8.70;4.97;;;3.10;99.90;;;;;;5041608;28;20397;-84
2023/10/17 00:31:47;;;;;;;6.17;4.40;;;3.10;99.90;;;;;;5045832;28;20574;-84
2023/10/17 00:34:15;;;;;;;9.63;4.77;;;3.10;99.90;;;;;;5043477;28;20294;-85
2023/10/17 00:36:49;;;;;;;6.60;4.90;;;3.10;99.90;;;;;;5044309;28;20225;-85
2023/10/17 00:39:23;;;;;;;8.90;4.83;;;3.00;99.90;;;;;;5044732;28;20313;-85
2023/10/17 00:42:02;;;;;;;7.37;4.83;;;3.00;99.90;;;;;;5043765;28;20232;-87
2023/10/17 00:44:36;;;;;;;5.70;4.27;;;3.00;99.90;;;;;;5029586;28;20242;-84
2023/10/17 00:47:04;;;;;;;7.30;4.93;;;3.00;99.90;;;;;;5033465;28;20241;-85
2023/10/17 00:49:40;;;;;;;6.70;4.80;;;3.00;99.90;;;;;;5030238;28;20245;-85
2023/10/17 00:52:18;;;;;;;7.17;4.80;;;3.00;99.90;;;;;;5023478;28;20718;-85
2023/10/17 00:54:46;;;;;;;7.77;4.70;;;2.90;99.90;;;;;;5019954;28;20257;-86
2023/10/17 00:57:15;;;;;;;5.77;4.00;;;2.90;99.90;;;;;;5023032;28;20227;-86
2023/10/17 00:59:50;;;;;;;7.33;4.37;;;2.80;99.90;;;;;;5024150;28;20223;-85
2023/10/17 01:02:21;;;;;;;7.33;4.40;;;2.90;99.90;;;;;;5027580;28;20220;-84
2023/10/17 01:04:48;;;;;;;19.37;5.00;;;2.80;99.90;;;;;;5019565;28;20249;-86
2023/10/17 01:07:23;;;;;;;5.67;4.53;;;2.80;99.90;;;;;;5023728;28;20728;-86
2023/10/17 01:09:55;;;;;;;5.80;4.63;;;2.70;99.90;;;;;;5033230;28;20266;-85
2023/10/17 01:12:26;;;;;;;6.73;4.23;;;2.70;99.90;;;;;;5031380;28;20727;-86
2023/10/17 01:14:53;;;;;;;6.40;4.67;;;2.70;99.90;;;;;;5027828;28;20315;-85
2023/10/17 01:17:23;;;;;;;7.23;4.80;;;2.60;99.90;;;;;;5023865;28;20923;-85
2023/10/17 01:19:53;;;;;;;6.57;4.83;;;2.70;99.90;;;;;;5023721;28;20236;-86
2023/10/17 01:22:22;;;;;;;6.37;4.77;;;2.60;99.90;;;;;;5040057;28;20253;-83
2023/10/17 01:24:50;;;;;;;7.87;4.73;;;2.60;99.90;;;;;;5043568;28;20282;-84
2023/10/17 01:27:17;;;;;;;6.30;4.87;;;2.60;99.90;;;;;;5043213;28;20347;-82
2023/10/17 01:29:44;;;;;;;7.07;4.90;;;2.50;99.90;;;;;;5044449;28;20303;-82
2023/10/17 01:32:14;;;;;;;6.33;4.57;;;2.60;99.90;;;;;;5031977;28;20319;-82
2023/10/17 01:34:41;;;;;;;7.67;4.50;;;2.50;99.90;;;;;;5024483;28;20337;-84
2023/10/17 01:37:10;;;;;;;13.57;5.67;;;2.50;99.90;;;;;;5022609;28;20698;-84
2023/10/17 01:39:37;;;;;;;7.50;5.00;;;2.50;99.90;;;;;;5022918;28;20233;-84
2023/10/17 01:42:06;;;;;;;9.03;5.47;;;2.50;99.90;;;;;;5022829;28;20224;-84
2023/10/17 01:44:33;;;;;;;8.13;4.77;;;2.50;99.90;;;;;;5022260;28;20237;-85
2023/10/17 01:47:00;;;;;;;6.70;5.00;;;2.40;99.90;;;;;;5022230;28;20232;-85
2023/10/17 01:49:27;;;;;;;7.70;5.00;;;2.40;99.90;;;;;;5037547;28;20249;-83
2023/10/17 01:51:57;;;;;;;5.73;4.43;;;2.40;99.90;;;;;;5042539;28;20235;-85
2023/10/17 01:54:25;;;;;;;7.37;5.03;;;2.40;99.90;;;;;;5041827;28;20229;-84
2023/10/17 01:56:52;;;;;;;6.83;4.70;;;2.40;99.90;;;;;;5042710;28;20319;-85
2023/10/17 01:59:25;;;;;;;7.50;5.47;;;2.30;99.90;;;;;;5041973;28;20975;-84
2023/10/17 02:01:56;;;;;;;7.30;4.87;;;2.30;99.90;;;;;;5035037;28;20594;-85
2023/10/17 02:04:24;;;;;;;8.60;5.17;;;2.30;99.90;;;;;;5022171;28;20229;-84
2023/10/17 02:06:51;;;;;;;6.47;4.90;;;2.20;99.90;;;;;;5022678;28;20221;-83
2023/10/17 02:09:24;;;;;;;7.20;4.73;;;2.20;99.90;;;;;;5023400;28;20236;-85
2023/10/17 02:11:51;;;;;;;7.73;5.00;;;2.20;99.90;;;;;;5022644;28;20229;-84
2023/10/17 02:14:20;;;;;;;7.87;4.87;;;2.10;99.90;;;;;;5028340;28;20249;-83
2023/10/17 02:16:48;;;;;;;7.67;5.60;;;2.10;99.90;;;;;;5029724;28;20332;-85
2023/10/17 02:19:15;;;;;;;7.53;5.07;;;2.10;99.90;;;;;;5026168;28;20314;-85
2023/10/17 02:21:43;;;;;;;9.40;5.20;;;2.10;99.90;;;;;;5031606;28;20226;-84
2023/10/17 02:24:10;;;;;;;10.03;5.43;;;2.10;99.90;;;;;;5030651;28;20248;-85
2023/10/17 02:26:43;;;;;;;6.87;4.77;;;2.00;99.90;;;;;;5022093;28;20816;-86
2023/10/17 02:29:11;;;;;;;7.07;4.80;;;2.00;99.90;;;;;;5027670;28;20323;-86
2023/10/17 02:31:40;;;;;;;8.70;4.83;;;2.00;99.90;;;;;;5037084;28;20237;-85
2023/10/17 02:34:09;;;;;;;11.77;5.50;;;2.00;99.90;;;;;;5032025;28;20747;-85
2023/10/17 02:36:36;;;;;;;6.73;5.03;;;2.00;99.90;;;;;;5025092;28;20222;-85
2023/10/17 02:39:05;;;;;;;8.50;5.13;;;2.00;99.90;;;;;;5021903;28;20228;-83
2023/10/17 02:41:33;;;;;;;7.27;4.80;;;1.90;99.90;;;;;;5029391;28;20331;-85
2023/10/17 02:44:04;;;;;;;5.67;4.80;;;1.90;99.90;;;;;;5032550;28;20240;-83
2023/10/17 02:46:33;;;;;;;8.00;4.80;;;1.90;99.90;;;;;;5036353;28;20779;-84
2023/10/17 02:49:06;;;;;;;7.13;4.87;;;1.90;99.90;;;;;;5036265;28;20224;-84
2023/10/17 02:51:34;;;;;;;9.90;4.50;;;1.90;99.90;;;;;;5051592;28;21467;-84
2023/10/17 02:54:05;;;;;;;7.37;4.50;;;1.90;99.90;;;;;;5053330;28;20236;-83
2023/10/17 02:56:37;;;;;;;5.40;4.70;;;1.80;99.90;;;;;;5034351;28;20276;-85
2023/10/17 02:59:06;;;;;;;5.97;4.47;;;1.90;99.90;;;;;;5033472;28;20770;-85
2023/10/17 03:01:36;;;;;;;9.57;4.80;;;1.80;99.90;;;;;;5038594;28;20244;-85
2023/10/17 03:04:08;;;;;;;8.27;5.53;;;1.80;99.90;;;;;;5036877;28;20261;-85
2023/10/17 03:06:38;;;;;;;8.10;4.90;;;1.80;99.90;;;;;;5040657;28;20236;-85
2023/10/17 03:12:07;;;;;;;8.93;4.40;;;1.80;99.90;;;;;;5027450;28;20247;-84
2023/10/17 03:14:49;;;;;;;6.97;4.30;;;1.70;99.90;;;;;;5027878;28;20220;-84
2023/10/17 03:17:15;;;;;;;6.47;4.40;;;1.70;99.90;;;;;;5039227;28;20231;-85
2023/10/17 03:19:43;;;;;;;6.17;4.43;;;1.70;99.90;;;;;;5025945;28;20740;-85
2023/10/17 03:22:18;;;;;;;8.30;4.80;;;1.70;99.90;;;;;;5040067;28;20239;-84
2023/10/17 03:24:46;;;;;;;5.63;4.20;;;1.60;99.90;;;;;;5039561;28;20229;-84
2023/10/17 03:27:23;;;;;;;7.30;4.37;;;1.60;99.90;;;;;;5035960;28;20257;-84
2023/10/17 03:29:51;;;;;;;5.93;3.90;;;1.70;99.90;;;;;;5033503;28;20722;-84
2023/10/17 03:32:20;;;;;;;5.37;4.20;;;1.60;99.90;;;;;;5029673;28;20582;-84
2023/10/17 03:34:56;;;;;;;6.23;4.80;;;1.60;99.90;;;;;;5024858;28;20649;-83
2023/10/17 03:37:29;;;;;;;7.03;4.37;;;1.60;99.90;;;;;;5037605;28;20231;-86
2023/10/17 03:40:00;;;;;;;6.60;4.63;;;1.50;99.90;;;;;;5038289;28;20238;-83
2023/10/17 03:42:44;;;;;;;6.67;3.83;;;1.50;99.90;;;;;;5029262;28;20236;-85
2023/10/17 03:45:17;;;;;;;6.07;3.80;;;1.50;99.90;;;;;;5020606;28;20231;-83
2023/10/17 03:47:48;;;;;;;4.47;3.33;;;1.40;99.90;;;;;;5025196;28;20230;-84
2023/10/17 03:50:34;;;;;;;5.90;4.10;;;1.40;99.90;;;;;;5024997;28;20283;-85
2023/10/17 03:53:07;;;;;;;4.70;3.70;;;1.40;99.90;;;;;;5050586;28;20340;-85
2023/10/17 03:55:35;;;;;;;10.33;3.83;;;1.40;99.90;;;;;;5048153;28;20374;-85
2023/10/17 03:58:08;;;;;;;78.20;8.40;;;1.40;99.90;;;;;;5036854;28;20232;-84
2023/10/17 04:00:41;;;;;;;6.43;4.20;;;1.40;99.90;;;;;;5027861;28;20291;-83
2023/10/17 04:03:18;;;;;;;6.60;4.10;;;1.40;99.90;;;;;;5034949;28;20237;-84
2023/10/17 04:05:49;;;;;;;5.47;3.93;;;1.30;99.90;;;;;;5048637;28;20221;-86
2023/10/17 04:08:19;;;;;;;6.40;4.33;;;1.30;99.90;;;;;;5030911;28;20616;-85
2023/10/17 04:10:49;;;;;;;7.60;4.07;;;1.30;99.90;;;;;;5027552;28;20288;-85
2023/10/17 04:13:23;;;;;;;7.67;4.13;;;1.30;99.90;;;;;;5024209;28;20236;-85
2023/10/17 04:15:50;;;;;;;5.47;3.97;;;1.30;99.90;;;;;;5024659;28;20899;-84
2023/10/17 04:18:17;;;;;;;5.53;3.83;;;1.30;99.90;;;;;;5024109;28;20232;-84
2023/10/17 04:20:46;;;;;;;6.43;4.17;;;1.30;99.90;;;;;;5038285;28;20352;-84
2023/10/17 04:23:26;;;;;;;10.37;4.90;;;1.30;99.90;;;;;;5033615;28;20926;-85
2023/10/17 04:25:55;;;;;;;7.07;4.47;;;1.20;99.90;;;;;;5039576;28;20311;-86
2023/10/17 04:28:26;;;;;;;7.30;4.10;;;1.30;99.90;;;;;;5034624;28;20253;-86
2023/10/17 04:30:57;;;;;;;7.23;4.67;;;1.20;99.90;;;;;;5029427;28;20221;-83
2023/10/17 04:33:28;;;;;;;7.47;4.10;;;1.20;99.90;;;;;;5033678;28;20332;-90
2023/10/17 04:36:00;;;;;;;5.50;3.93;;;1.20;99.90;;;;;;5037803;28;20319;-84
2023/10/17 04:38:38;;;;;;;7.77;4.27;;;1.20;99.90;;;;;;5043851;28;20229;-88
2023/10/17 04:41:30;;;;;;;7.13;4.47;;;1.20;99.90;;;;;;5038957;28;20216;-86
2023/10/17 04:44:02;;;;;;;5.33;4.40;;;1.10;99.90;;;;;;5038018;28;20246;-85
2023/10/17 04:46:29;;;;;;;6.53;4.80;;;1.10;99.90;;;;;;5039071;28;20320;-86
2023/10/17 04:49:06;;;;;;;6.97;4.10;;;1.10;99.90;;;;;;5045448;28;20974;-86
2023/10/17 04:51:38;;;;;;;5.63;3.83;;;1.00;99.90;;;;;;5045661;28;20227;-86
2023/10/17 04:54:20;;;;;;;7.20;5.07;;;1.00;99.90;;;;;;5046240;28;20225;-87
2023/10/17 04:56:58;;;;;;;8.87;4.70;;;1.00;99.90;;;;;;5045473;28;20221;-85
2023/10/17 04:59:41;;;;;;;7.17;4.13;;;1.00;99.90;;;;;;5044871;28;20281;-86
2023/10/17 05:02:35;;;;;;;11.67;4.47;;;1.00;99.90;;;;;;5045655;28;20755;-84
2023/10/17 06:16:52;;;;;;;9.13;4.50;;;2.50;99.90;;;;;;5046267;28;20245;-85
2023/10/17 06:19:22;;;;;;;5.63;3.90;;;2.60;99.90;;;;;;5047082;28;20220;-86
2023/10/17 06:26:02;;;;;;;5.00;3.87;;;2.90;99.90;;;;;;5045421;28;20302;-85
2023/10/17 06:28:20;;;;;;;5.97;4.13;;;3.00;99.90;;;;;;5041515;28;20238;-88
2023/10/17 06:30:46;;;;;;;4.80;3.50;;;3.10;99.90;;;;;;5020941;28;20582;-87
2023/10/17 06:33:19;;;;;;;7.47;3.77;;;3.20;99.90;;;;;;5029666;28;20245;-87
2023/10/17 06:35:52;;;;;;;7.13;4.20;;;3.40;99.90;;;;;;5044440;28;20222;-86
2023/10/17 06:38:20;;;;;;;5.97;3.77;;;3.50;99.90;;;;;;5027891;28;20292;-88
2023/10/17 06:40:51;;;;;;;6.27;3.40;;;3.60;99.90;;;;;;5025462;28;20215;-85
2023/10/17 06:43:27;;;;;;;5.17;3.53;;;3.70;99.90;;;;;;5032996;28;20233;-86
2023/10/17 06:45:57;;;;;;;6.77;3.73;;;3.80;99.90;;;;;;5042481;28;20228;-87
2023/10/17 06:48:36;;;;;;;5.63;3.80;;;3.90;99.90;;;;;;5036145;28;20237;-87
2023/10/17 06:53:52;;;;;;;8.67;4.00;;;4.20;99.90;;;;;;5037315;28;20230;-85
2023/10/17 06:56:19;;;;;;;10.27;7.00;;;4.30;99.90;;;;;;5040899;28;20268;-87
2023/10/17 06:58:47;;;;;;;5.43;3.67;;;4.40;99.90;;;;;;5035813;28;20254;-87
2023/10/17 07:01:24;;;;;;;5.60;3.50;;;4.50;99.90;;;;;;5033384;28;20222;-86
2023/10/17 07:03:55;;;;;;;4.20;3.43;;;4.60;99.90;;;;;;5052449;28;20264;-87
2023/10/17 07:06:24;;;;;;;7.13;3.40;;;4.70;99.90;;;;;;5027970;28;20227;-88
2023/10/17 07:08:52;;;;;;;5.30;3.43;;;4.80;99.90;;;;;;5034166;28;20273;-87
2023/10/17 07:11:26;;;;;;;5.33;3.57;;;4.90;99.90;;;;;;5023915;28;20222;-88
2023/10/17 07:13:55;;;;;;;6.10;3.40;;;5.00;99.90;;;;;;5050626;28;20317;-86
2023/10/17 07:16:26;;;;;;;4.77;3.17;;;5.10;99.90;;;;;;5032759;28;20229;-88
2023/10/17 07:18:55;;;;;;;4.83;3.43;;;5.30;99.90;;;;;;5033892;28;20223;-87
2023/10/17 07:21:24;;;;;;;5.47;3.80;;;5.30;99.90;;;;;;5030117;28;20224;-88
2023/10/17 07:23:54;;;;;;;6.30;3.30;;;5.40;99.90;;;;;;5028788;28;20256;-86
2023/10/17 07:26:38;;;;;;;6.97;3.90;;;5.50;99.90;;;;;;5033656;28;20219;-89
2023/10/17 07:29:06;;;;;;;5.60;3.80;;;5.60;99.90;;;;;;5053296;28;20320;-88
2023/10/17 07:31:33;;;;;;;5.33;3.77;;;5.70;99.90;;;;;;5034767;28;20248;-87
2023/10/17 07:34:16;;;;;;;5.13;3.80;;;5.80;99.90;;;;;;5048070;28;20224;-88
2023/10/17 07:36:43;;;;;;;6.87;3.90;;;5.90;99.90;;;;;;5031859;28;20282;-88
2023/10/17 07:39:22;;;;;;;5.60;4.80;;;6.00;99.90;;;;;;5053648;28;20219;-88
2023/10/17 07:41:54;;;;;;;8.50;4.73;;;6.10;99.90;;;;;;5038690;28;20216;-87
2023/10/17 07:44:21;;;;;;;6.50;4.97;;;6.20;99.90;;;;;;5030493;28;20228;-88
2023/10/17 07:46:50;;;;;;;7.57;5.10;;;6.40;99.90;;;;;;5032175;28;20228;-88
2023/10/17 07:49:25;;;;;;;9.10;6.10;;;6.40;99.90;;;;;;5035772;28;20287;-88
2023/10/17 07:51:52;;;;;;;9.27;5.27;;;6.50;99.90;;;;;;5053688;28;20221;-88
2023/10/17 07:54:19;;;;;;;6.63;4.80;;;6.70;99.90;;;;;;5033785;28;20222;-85
2023/10/17 07:56:50;;;;;;;9.47;5.03;;;6.80;99.90;;;;;;5033149;28;20274;-88
2023/10/17 07:59:18;;;;;;;9.07;5.03;;;6.90;99.90;;;;;;5033064;28;20225;-87
2023/10/17 08:01:46;;;;;;;7.57;5.07;;;7.00;99.90;;;;;;5039317;28;20231;-87
2023/10/17 08:04:23;;;;;;;7.97;5.20;;;7.10;99.90;;;;;;5028493;28;20240;-87
2023/10/17 08:06:52;;;;;;;9.03;4.70;;;7.20;99.90;;;;;;5032778;28;20243;-86
2023/10/17 08:09:24;;;;;;;9.33;4.80;;;7.40;99.90;;;;;;5032038;28;20254;-86
2023/10/17 08:11:52;;;;;;;7.83;4.20;;;7.50;99.90;;;;;;5029316;28;20736;-89
2023/10/17 08:14:22;;;;;;;6.27;3.77;;;7.50;99.90;;;;;;5034387;28;20643;-88
2023/10/17 08:16:50;;;;;;;6.87;4.30;;;7.60;99.90;;;;;;5034746;28;20388;-86
2023/10/17 08:19:21;;;;;;;5.73;3.70;;;7.70;99.90;;;;;;5037669;28;20251;-87
2023/10/17 08:21:49;;;;;;;7.30;4.23;;;7.80;99.90;;;;;;5036327;28;20381;-89
2023/10/17 08:24:26;;;;;;;6.93;3.67;;;7.90;99.90;;;;;;5031371;28;20227;-88
2023/10/17 08:27:13;;;;;;;5.13;3.53;;;8.00;99.90;;;;;;5043777;28;20954;-88
2023/10/17 08:29:42;;;;;;;5.40;3.03;;;8.10;99.90;;;;;;5032576;28;20237;-87
2023/10/17 08:32:38;;;;;;;5.80;2.97;;;8.20;99.90;;;;;;5029293;28;20237;-87
2023/10/17 08:35:08;;;;;;;7.17;3.00;;;8.30;99.90;;;;;;5036446;28;20604;-88
2023/10/17 08:37:43;;;;;;;5.83;3.00;;;8.40;99.90;;;;;;5033980;28;20696;-87
2023/10/17 08:40:29;;;;;;;4.13;2.70;;;8.50;99.90;;;;;;5028325;28;20791;-89
2023/10/17 08:42:56;;;;;;;5.47;3.00;;;8.60;99.90;;;;;;5047488;28;20229;-88
2023/10/17 08:45:26;;;;;;;5.47;2.67;;;8.70;99.90;;;;;;5031545;28;20234;-89
2023/10/17 08:47:57;;;;;;;3.73;2.40;;;8.90;99.90;;;;;;5032786;28;20219;-88
2023/10/17 08:50:24;;;;;;;5.27;2.60;;;9.00;99.90;;;;;;5034450;28;20261;-91
2023/10/17 08:52:53;;;;;;;4.43;2.37;;;9.10;99.90;;;;;;5034590;28;20878;-87
2023/10/17 08:55:24;;;;;;;5.10;2.07;;;9.20;99.90;;;;;;5029791;28;20216;-87
2023/10/17 08:57:52;;;;;;;4.30;2.40;;;9.30;99.90;;;;;;5036847;28;20234;-87
2023/10/17 09:00:39;;;;;;;4.40;2.30;;;9.40;99.90;;;;;;5048689;28;20226;-87
2023/10/17 09:03:09;;;;;;;5.27;2.10;;;9.60;99.90;;;;;;5031288;28;20646;-87
2023/10/17 09:05:57;;;;;;;3.03;2.00;;;9.70;99.90;;;;;;5031434;28;21331;-86
2023/10/17 09:08:41;;;;;;;3.60;2.00;;;9.90;99.90;;;;;;5029439;28;20231;-87
2023/10/17 09:11:09;;;;;;;3.40;1.93;;;10.00;99.90;;;;;;5028369;28;20981;-87
2023/10/17 09:16:39;;;;;;;3.53;1.90;;;10.30;99.90;;;;;;5031969;28;20216;-89
2023/10/17 09:19:10;;;;;;;3.93;1.93;;;10.50;99.90;;;;;;5034805;28;20257;-88
2023/10/17 09:21:42;;;;;;;5.70;2.03;;;10.60;99.90;;;;;;5032374;28;20275;-89
2023/10/17 09:24:35;;;;;;;6.57;3.43;;;10.80;99.90;;;;;;5037691;28;20282;-87
2023/10/17 09:27:10;;;;;;;4.37;2.50;;;10.90;99.90;;;;;;5040037;28;20856;-90
2023/10/17 09:29:49;;;;;;;8.00;2.30;;;11.10;99.90;;;;;;5045214;28;20225;-88
2023/10/17 09:32:34;;;;;;;3.10;2.10;;;11.20;99.90;;;;;;5046494;28;20225;-88
2023/10/17 09:35:05;;;;;;;5.57;2.00;;;11.40;99.90;;;;;;5033191;28;20218;-88
2023/10/17 09:37:33;;;;;;;4.57;2.10;;;11.60;99.90;;;;;;5030070;28;20282;-88
2023/10/17 09:40:09;;;;;;;5.80;1.93;;;11.80;99.90;;;;;;5034878;28;20317;-88
2023/10/17 09:42:40;;;;;;;3.67;1.67;;;11.90;99.90;;;;;;5035036;28;20763;-88
2023/10/17 09:45:09;;;;;;;3.47;1.40;;;12.00;99.90;;;;;;5038916;28;20991;-88
2023/10/17 09:47:41;;;;;;;3.63;1.40;;;12.20;99.90;;;;;;5037898;28;20230;-89
2023/10/17 09:50:11;;;;;;;2.60;1.50;;;12.40;99.90;;;;;;5031173;28;20656;-89
2023/10/17 09:52:39;;;;;;;4.47;1.50;;;12.60;99.90;;;;;;5033964;28;20251;-87
2023/10/17 09:55:09;;;;;;;4.07;1.43;;;12.70;99.90;;;;;;5031428;28;20664;-85
2023/10/17 09:57:41;;;;;;;3.83;1.47;;;12.90;99.90;;;;;;5033587;28;20236;-85
2023/10/17 10:00:15;;;;;;;5.13;1.40;;;13.00;99.90;;;;;;5045502;28;20654;-84
2023/10/17 10:02:43;;;;;;;2.90;1.40;;;13.20;99.90;;;;;;5026385;28;20226;-86
2023/10/17 10:05:20;;;;;;;3.90;1.20;;;13.30;99.90;;;;;;5020220;28;20270;-85
2023/10/17 10:07:47;;;;;;;4.13;1.10;;;13.40;99.90;;;;;;5033970;28;21363;-87
2023/10/17 10:10:49;;;;;;;5.37;1.30;;;13.60;99.90;;;;;;5033831;28;20230;-86
2023/10/17 10:13:17;;;;;;;2.40;1.17;;;13.70;99.90;;;;;;5032465;28;20240;-86
2023/10/17 10:15:58;;;;;;;3.13;1.00;;;13.80;99.90;;;;;;5035451;28;20250;-87
2023/10/17 10:18:52;;;;;;;4.70;1.00;;;13.90;99.90;;;;;;5026563;28;20690;-86
2023/10/17 10:21:19;;;;;;;1.97;0.90;;;14.00;99.90;;;;;;5049151;28;20239;-86
2023/10/17 10:23:46;;;;;;;4.07;0.80;;;14.10;99.90;;;;;;5029740;28;20221;-85
2023/10/17 10:26:19;;;;;;;2.60;0.90;;;14.30;99.90;;;;;;5029495;28;20808;-86
2023/10/17 10:28:48;;;;;;;2.60;1.00;;;14.30;99.90;;;;;;5023537;28;20230;-86
2023/10/17 10:31:38;;;;;;;1.90;0.70;;;14.40;99.90;;;;;;5027957;28;20233;-87
2023/10/17 10:34:07;;;;;;;1.90;0.70;;;14.40;99.90;;;;;;5033249;28;20269;-86
2023/10/17 10:36:35;;;;;;;4.00;1.00;;;14.50;99.90;;;;;;5026840;28;20227;-87
2023/10/17 10:39:13;;;;;;;2.53;0.80;;;14.50;99.90;;;;;;5033714;28;20936;-87
2023/10/17 10:41:55;;;;;;;1.47;0.70;;;14.50;99.90;;;;;;5028893;28;20240;-87
2023/10/17 10:44:23;;;;;;;5.63;0.70;;;14.50;99.90;;;;;;5043206;28;20254;-86
2023/10/17 10:46:49;;;;;;;2.30;0.70;;;14.60;99.90;;;;;;5025186;28;20231;-86
2023/10/17 10:49:16;;;;;;;2.50;0.90;;;14.70;99.90;;;;;;5029478;28;20230;-86
2023/10/17 10:51:48;;;;;;;2.77;0.80;;;14.70;99.90;;;;;;5033169;28;20316;-87
2023/10/17 10:54:14;;;;;;;3.70;0.97;;;14.80;99.60;;;;;;5030425;28;20744;-87
2023/10/17 10:56:51;;;;;;;3.37;0.80;;;14.90;99.90;;;;;;5031880;28;20250;-87
2023/10/17 10:59:21;;;;;;;2.33;0.87;;;15.00;99.50;;;;;;5029273;28;20309;-86
2023/10/17 11:01:50;;;;;;;3.17;1.00;;;15.10;99.80;;;;;;5032074;28;20312;-87
2023/10/17 11:04:17;;;;;;;1.57;0.77;;;15.10;99.90;;;;;;5029960;28;20308;-86
2023/10/17 11:06:45;;;;;;;1.50;0.80;;;15.30;99.90;;;;;;5031319;28;20217;-87
2023/10/17 11:09:16;;;;;;;2.53;0.90;;;15.30;99.90;;;;;;5031933;28;20215;-86
2023/10/17 11:11:46;;;;;;;4.30;1.00;;;15.40;99.40;;;;;;5035426;28;20305;-87
2023/10/17 11:14:17;;;;;;;3.53;1.03;;;15.60;99.00;;;;;;5026293;28;20224;-86
2023/10/17 11:16:50;;;;;;;4.87;1.30;;;15.70;98.90;;;;;;5034586;28;20227;-86
2023/10/17 11:19:22;;;;;;;3.77;0.90;;;15.80;99.20;;;;;;5033363;28;20781;-85
2023/10/17 11:21:57;;;;;;;3.33;1.20;;;16.00;98.80;;;;;;5027139;28;21015;-86
2023/10/17 11:24:26;;;;;;;3.97;0.97;;;16.10;97.70;;;;;;5027737;28;20315;-86
2023/10/17 11:26:54;;;;;;;3.40;1.03;;;16.20;98.30;;;;;;5034979;28;20226;-86
2023/10/17 11:29:26;;;;;;;2.13;0.70;;;16.30;98.50;;;;;;5030220;28;20227;-86
2023/10/17 11:31:54;;;;;;;2.23;0.77;;;16.40;98.20;;;;;;5025781;28;21061;-86
2023/10/17 11:34:31;;;;;;;1.73;0.73;;;16.50;97.80;;;;;;5027647;28;20228;-87
2023/10/17 11:37:04;;;;;;;1.70;0.60;;;16.60;96.70;;;;;;5026911;28;20236;-85
2023/10/17 11:39:39;;;;;;;1.97;0.70;;;16.80;97.60;;;;;;5030991;28;20229;-85
2023/10/17 11:42:06;;;;;;;2.43;0.60;;;16.90;96.00;;;;;;5030937;28;20225;-84
2023/10/17 11:44:33;;;;;;;1.10;0.60;;;17.00;97.10;;;;;;5032120;28;20733;-86
2023/10/17 11:47:02;;;;;;;1.47;0.53;;;17.10;96.50;;;;;;5024722;28;20227;-85
2023/10/17 11:49:35;;;;;;;1.83;0.60;;;17.20;96.50;;;;;;5029518;28;20230;-86
2023/10/17 11:52:04;;;;;;;3.97;0.90;;;17.10;96.40;;;;;;5027762;28;20719;-86
2023/10/17 11:54:33;;;;;;;1.57;0.67;;;17.20;96.30;;;;;;5028904;28;20596;-85
2023/10/17 11:57:11;;;;;;;1.40;0.60;;;17.10;96.30;;;;;;5028709;28;20257;-86
2023/10/17 11:59:38;;;;;;;1.83;0.70;;;17.10;95.00;;;;;;5031797;28;20226;-85
2023/10/17 12:02:04;;;;;;;1.30;0.70;;;17.10;96.10;;;;;;5023790;28;20347;-85
2023/10/17 12:04:33;;;;;;;3.07;0.73;;;17.10;96.10;;;;;;5023256;28;20307;-86
2023/10/17 12:07:00;;;;;;;1.47;0.60;;;17.10;94.90;;;;;;5033319;28;20228;-85
2023/10/17 12:09:27;;;;;;;2.37;0.60;;;17.10;95.90;;;;;;5034176;28;20231;-86
2023/10/17 12:11:54;;;;;;;1.07;0.60;;;17.00;95.70;;;;;;5035100;28;20714;-85
2023/10/17 12:14:22;;;;;;;1.77;0.70;;;17.10;95.60;;;;;;5028462;28;20690;-85
2023/10/17 12:16:49;;;;;;;1.40;0.60;;;17.00;95.30;;;;;;5038152;28;20224;-86
2023/10/17 12:19:17;;;;;;;0.67;0.40;;;17.00;95.50;;;;;;5034298;28;20331;-85
2023/10/17 12:21:47;;;;;;;1.87;0.50;;;17.00;95.50;;;;;;5038069;28;20223;-85
2023/10/17 12:24:16;;;;;;;2.40;0.80;;;17.10;94.80;;;;;;5033535;28;20224;-86
2023/10/17 12:26:45;;;;;;;2.10;0.70;;;17.00;95.00;;;;;;5037193;28;20318;-87
2023/10/17 12:29:12;;;;;;;1.60;0.40;;;17.00;95.20;;;;;;5038697;28;20228;-87
2023/10/17 12:31:39;;;;;;;1.03;0.60;;;17.00;94.80;;;;;;5043537;28;20306;-87
2023/10/17 12:34:07;;;;;;;2.30;0.60;;;17.00;95.00;;;;;;5039540;28;20225;-87
2023/10/17 12:36:35;;;;;;;3.07;0.80;;;17.00;94.80;;;;;;5037298;28;20224;-87
2023/10/17 12:39:03;;;;;;;2.67;0.60;;;17.00;94.80;;;;;;5038743;28;20319;-86
2023/10/17 12:41:30;;;;;;;2.27;0.83;;;17.00;94.20;;;;;;5037697;28;20228;-86
2023/10/17 12:43:58;;;;;;;3.03;0.60;;;17.00;94.40;;;;;;5040539;28;21930;-86
2023/10/17 12:46:25;;;;;;;1.70;0.60;;;17.00;94.20;;;;;;5035946;28;20252;-86
2023/10/17 12:48:52;;;;;;;1.30;0.60;;;17.00;94.00;;;;;;5043226;28;20223;-86
2023/10/17 12:51:20;;;;;;;1.03;0.50;;;17.00;94.20;;;;;;5040287;28;20270;-85
2023/10/17 12:53:47;;;;;;;0.57;0.30;;;16.90;94.20;;;;;;5040561;28;20313;-86
2023/10/17 12:56:15;;;;;;;0.70;0.50;;;17.00;94.20;;;;;;5041716;28;20248;-86
2023/10/17 12:58:42;;;;;;;3.23;0.50;;;17.00;94.00;;;;;;5040070;28;20306;-86
2023/10/17 13:01:11;;;;;;;0.63;0.40;;;17.00;94.10;;;;;;5036224;28;20303;-85
2023/10/17 13:03:38;;;;;;;1.23;0.67;;;17.00;94.40;;;;;;5035978;28;20261;-84
2023/10/17 13:06:05;;;;;;;0.60;0.40;;;17.00;94.30;;;;;;5034318;28;20251;-85
2023/10/17 13:08:32;;;;;;;1.10;0.30;;;16.90;94.40;;;;;;5040995;28;20218;-83
2023/10/17 13:10:59;;;;;;;1.30;0.40;;;16.90;94.30;;;;;;5043427;28;20695;-82
2023/10/17 13:13:27;;;;;;;0.70;0.50;;;16.90;93.80;;;;;;5048545;28;20251;-85
2023/10/17 13:15:54;;;;;;;2.13;0.70;;;16.90;94.00;;;;;;5039916;28;20246;-84
2023/10/17 13:18:21;;;;;;;1.77;0.50;;;16.90;94.30;;;;;;5040707;28;20232;-84
2023/10/17 13:20:49;;;;;;;1.50;0.50;;;16.80;94.20;;;;;;5038954;28;20232;-82
2023/10/17 13:23:16;;;;;;;0.70;0.50;;;16.70;94.50;;;;;;5037332;28;20318;-84
2023/10/17 13:25:44;;;;;;;1.10;0.47;;;16.50;94.10;;;;;;5036627;28;20317;-82
2023/10/17 13:28:11;;;;;;;1.10;0.50;;;16.40;93.10;;;;;;5043349;28;20606;-82
2023/10/17 13:30:40;;;;;;;2.00;0.70;;;16.30;92.90;;;;;;5039237;28;20294;-83
2023/10/17 13:33:07;;;;;;;2.90;0.53;;;16.10;92.60;;;;;;5045278;28;20226;-83
2023/10/17 13:35:37;;;;;;;0.93;0.53;;;15.90;93.20;;;;;;5037674;28;20230;-82
2023/10/17 13:38:04;;;;;;;1.40;0.70;;;15.70;93.60;;;;;;5043854;28;20230;-83
2023/10/17 13:40:32;;;;;;;1.17;0.60;;;15.60;94.50;;;;;;5038837;28;20230;-79
2023/10/17 13:43:00;;;;;;;1.30;0.40;;;15.50;94.30;;;;;;5038541;28;20371;-84
2023/10/17 13:45:28;;;;;;;1.47;0.67;;;15.40;94.20;;;;;;5034653;28;20225;-84
2023/10/17 13:47:56;;;;;;;1.43;0.63;;;15.40;94.30;;;;;;5044954;28;20229;-87
2023/10/17 13:50:23;;;;;;;1.47;0.47;;;15.30;94.10;;;;;;5039205;28;20248;-85
2023/10/17 13:52:52;;;;;;;1.27;0.50;;;15.20;94.90;;;;;;5040596;28;20252;-86
2023/10/17 13:55:25;;;;;;;2.17;0.70;;;15.20;94.80;;;;;;5046087;28;20284;-83
2023/10/17 13:57:55;;;;;;;1.27;0.50;;;15.10;95.00;;;;;;5044256;28;20227;-84
2023/10/17 14:00:23;;;;;;;1.13;0.50;;;15.10;95.00;;;;;;5063348;28;20216;-86
2023/10/17 14:02:51;;;;;;;2.40;0.50;;;15.00;94.90;;;;;;5042377;28;20226;-85
2023/10/17 14:05:19;;;;;;;2.67;0.80;;;14.90;94.90;;;;;;5044810;28;20219;-82
2023/10/17 14:07:48;;;;;;;1.10;0.47;;;14.80;95.00;;;;;;5043459;28;20237;-83
2023/10/17 14:10:15;;;;;;;1.73;0.43;;;14.80;95.00;;;;;;5044997;28;20246;-87
2023/10/17 14:12:46;;;;;;;1.97;0.53;;;14.70;95.10;;;;;;5038278;28;20226;-86
2023/10/17 14:15:13;;;;;;;2.07;0.40;;;14.60;96.00;;;;;;5032397;28;20228;-86
2023/10/17 14:17:45;;;;;;;0.97;0.50;;;14.60;96.10;;;;;;5046499;28;20217;-84
2023/10/17 14:20:17;;;;;;;0.47;0.37;;;14.50;95.70;;;;;;5041037;28;20246;-84
2023/10/17 14:22:58;;;;;;;1.03;0.40;;;14.40;95.50;;;;;;5037097;28;20728;-88
2023/10/17 14:28:08;;;;;;;0.40;0.40;;;14.20;95.00;;;;;;5035563;28;20229;-82
2023/10/17 14:30:39;;;;;;;0.77;0.40;;;14.10;95.20;;;;;;5041793;28;20221;-85
2023/10/17 14:33:08;;;;;;;1.47;0.43;;;14.00;94.70;;;;;;5037639;28;20225;-86
2023/10/17 14:35:35;;;;;;;1.47;0.40;;;13.90;95.00;;;;;;5041617;28;20229;-84
2023/10/17 14:38:05;;;;;;;0.30;0.23;;;13.80;95.40;;;;;;5035384;28;20576;-84
2023/10/17 14:40:34;;;;;;;0.47;0.30;;;13.80;95.40;;;;;;5040732;28;20231;-83